Terminal Aerodrome Forecast
Issued by NWS Northern Indiana

Home | Current Version | Previous Version | Graphics & Text | Print | Product List | Glossary On
Versions: 1 2 3 4 5 6 7 8 9 10 11 12 13 14 15 16 17
000
FTUS43 KIWX 281720
TAFFWA
TAF
KFWA 281720Z 2818/2918 34005KT P6SM SCT250
     FM290600 17005KT P6SM OVC080
     FM291000 15005KT P6SM -RA OVC040
     FM291500 13008KT 5SM RA OVC030=

USA.gov is the U.S. government's official web portal to all federal, state and local government web resources and services.